createdAt,value
2018-06-05T00:01:24.115Z,100674.52
2018-06-05T00:03:52.491Z,100681.53
2018-06-05T00:06:20.867Z,100680.66
2018-06-05T00:08:49.240Z,100675.08
2018-06-05T00:11:17.614Z,100672.50
2018-06-05T00:13:46.017Z,100679.11
2018-06-05T00:16:14.395Z,100679.94
2018-06-05T00:18:42.764Z,100675.48
2018-06-05T00:21:11.189Z,100673.66
2018-06-05T00:23:39.586Z,100666.86
2018-06-05T00:26:07.944Z,100667.41
2018-06-05T00:28:36.312Z,100670.75
2018-06-05T00:31:05.027Z,100664.21
2018-06-05T00:33:33.395Z,100665.80
2018-06-05T00:36:01.771Z,100667.09
2018-06-05T00:38:30.151Z,100670.32
2018-06-05T00:40:58.525Z,100673.19
2018-06-05T00:43:26.902Z,100676.58
2018-06-05T00:45:55.278Z,100678.87
2018-06-05T00:48:23.658Z,100679.50
2018-06-05T00:50:52.021Z,100679.20
2018-06-05T00:53:20.394Z,100675.45
2018-06-05T00:55:48.768Z,100670.78
2018-06-05T00:58:17.139Z,100672.30
2018-06-05T01:00:45.514Z,100668.70
2018-06-05T01:03:13.892Z,100665.90
2018-06-05T01:05:42.263Z,100664.61
2018-06-05T01:08:10.655Z,100667.97
2018-06-05T01:10:39.029Z,100669.66
2018-06-05T01:13:07.413Z,100667.15
2018-06-05T01:15:35.788Z,100673.95
2018-06-05T01:18:04.162Z,100676.20
2018-06-05T01:20:32.549Z,100678.27
2018-06-05T01:23:01.090Z,100675.19
2018-06-05T01:25:29.455Z,100673.39
2018-06-05T01:27:57.823Z,100676.44
2018-06-05T01:30:26.210Z,100677.02
2018-06-05T01:32:54.584Z,100675.25
2018-06-05T01:35:22.960Z,100674.53
2018-06-05T01:37:51.354Z,100673.48
2018-06-05T01:40:19.725Z,100674.13
2018-06-05T01:42:48.111Z,100670.83
2018-06-05T01:45:16.490Z,100671.27
2018-06-05T01:47:44.858Z,100667.03
2018-06-05T01:50:13.236Z,100665.63
2018-06-05T01:52:41.607Z,100666.20
2018-06-05T01:55:09.984Z,100668.98
2018-06-05T01:57:38.355Z,100677.72
2018-06-05T02:00:06.736Z,100671.22
2018-06-05T02:02:35.115Z,100666.42
2018-06-05T02:05:03.496Z,100667.44
2018-06-05T02:07:31.878Z,100674.91
2018-06-05T02:10:00.259Z,100682.22
2018-06-05T02:12:28.644Z,100688.96
2018-06-05T02:14:57.011Z,100689.05
2018-06-05T02:17:25.390Z,100689.69
2018-06-05T02:19:53.754Z,100686.19
2018-06-05T02:22:22.131Z,100686.73
2018-06-05T02:24:50.547Z,100684.96
2018-06-05T02:27:18.923Z,100685.63
2018-06-05T02:29:47.302Z,100683.88
2018-06-05T02:32:15.721Z,100684.97
2018-06-05T02:34:44.097Z,100678.90
2018-06-05T02:37:12.453Z,100680.58
2018-06-05T02:39:40.828Z,100680.27
2018-06-05T02:42:09.206Z,100683.52
2018-06-05T02:44:37.591Z,100687.14
2018-06-05T02:47:05.973Z,100694.25
2018-06-05T02:49:34.351Z,100693.16
2018-06-05T02:52:03.635Z,100693.22
2018-06-05T02:54:32.013Z,100694.23
2018-06-05T02:57:00.391Z,100691.58
2018-06-05T02:59:28.769Z,100694.50
2018-06-05T03:01:57.130Z,100698.19
2018-06-05T03:04:25.500Z,100693.83
2018-06-05T03:06:53.864Z,100693.30
2018-06-05T03:09:22.254Z,100699.45
2018-06-05T03:11:50.634Z,100703.66
2018-06-05T03:14:19.273Z,100704.92
2018-06-05T03:16:47.649Z,100705.75
2018-06-05T03:19:16.017Z,100702.98
2018-06-05T03:21:44.382Z,100701.91
2018-06-05T03:24:12.894Z,100702.53
2018-06-05T03:26:41.306Z,100705.67
2018-06-05T03:29:09.658Z,100708.83
2018-06-05T03:31:38.039Z,100708.71
2018-06-05T03:34:06.438Z,100710.98
2018-06-05T03:36:34.773Z,100711.27
2018-06-05T03:39:03.138Z,100712.15
2018-06-05T03:41:31.487Z,100715.19
2018-06-05T03:43:59.860Z,100719.38
2018-06-05T03:46:28.229Z,100723.44
2018-06-05T03:48:56.581Z,100729.77
2018-06-05T03:51:24.944Z,100732.49
2018-06-05T03:53:53.306Z,100737.47
2018-06-05T03:56:21.677Z,100733.06
2018-06-05T03:58:50.034Z,100730.89
2018-06-05T04:01:18.616Z,100737.64
2018-06-05T04:03:46.750Z,100742.23
2018-06-05T04:06:15.118Z,100750.43
2018-06-05T04:08:43.482Z,100756.61
2018-06-05T04:11:11.835Z,100756.75
2018-06-05T04:13:40.194Z,100755.06
2018-06-05T04:16:08.555Z,100749.23
2018-06-05T04:18:36.937Z,100753.59
2018-06-05T04:21:05.299Z,100755.09
2018-06-05T04:23:33.663Z,100758.65
2018-06-05T04:26:02.019Z,100760.02
2018-06-05T04:28:30.423Z,100769.03
2018-06-05T04:30:58.787Z,100773.61
2018-06-05T04:33:27.145Z,100772.05
2018-06-05T04:35:55.507Z,100776.88
2018-06-05T04:38:23.867Z,100777.28
2018-06-05T04:40:52.228Z,100784.51
2018-06-05T04:43:20.592Z,100790.11
2018-06-05T04:45:48.953Z,100797.45
2018-06-05T04:48:17.333Z,100799.00
2018-06-05T04:50:45.692Z,100796.01
2018-06-05T04:53:14.075Z,100798.75
2018-06-05T04:55:42.419Z,100795.86
2018-06-05T04:58:10.774Z,100796.59
2018-06-05T05:00:39.130Z,100793.93
2018-06-05T05:03:07.517Z,100800.88
2018-06-05T05:05:35.899Z,100800.72
2018-06-05T05:08:05.166Z,100802.92
2018-06-05T05:10:33.533Z,100804.68
2018-06-05T05:13:01.898Z,100805.78
2018-06-05T05:15:30.252Z,100801.98
2018-06-05T05:17:58.610Z,100807.55
2018-06-05T05:20:27.992Z,100806.75
2018-06-05T05:22:56.355Z,100808.48
2018-06-05T05:25:25.593Z,100806.97
2018-06-05T05:27:53.744Z,100809.55
2018-06-05T05:30:22.133Z,100812.26
2018-06-05T05:32:50.609Z,100812.97
2018-06-05T05:35:19.832Z,100810.06
2018-06-05T05:37:49.078Z,100813.14
2018-06-05T05:40:16.702Z,100817.28
2018-06-05T05:42:45.090Z,100816.58
2018-06-05T05:45:15.089Z,100816.87
2018-06-05T05:47:43.470Z,100819.79
2018-06-05T05:50:11.832Z,100825.97
2018-06-05T05:52:40.191Z,100829.03
2018-06-05T05:55:08.556Z,100829.16
2018-06-05T05:57:36.919Z,100825.84
2018-06-05T06:00:05.291Z,100834.27
2018-06-05T06:02:33.656Z,100831.86
2018-06-05T06:05:02.008Z,100833.55
2018-06-05T06:07:30.369Z,100827.45
2018-06-05T06:09:58.728Z,100830.69
2018-06-05T06:12:27.120Z,100832.28
2018-06-05T06:14:55.476Z,100835.02
2018-06-05T06:17:23.838Z,100834.84
2018-06-05T06:19:52.227Z,100839.47
2018-06-05T06:22:20.591Z,100837.59
2018-06-05T06:24:48.953Z,100842.16
2018-06-05T06:27:17.313Z,100847.30
2018-06-05T06:29:45.679Z,100841.36
2018-06-05T06:32:14.053Z,100848.20
2018-06-05T06:34:42.407Z,100855.36
2018-06-05T06:37:10.778Z,100863.81
2018-06-05T06:39:39.167Z,100862.27
2018-06-05T06:42:07.527Z,100871.77
2018-06-05T06:44:35.901Z,100870.44
2018-06-05T06:47:04.276Z,100872.52
2018-06-05T06:49:32.634Z,100880.61
2018-06-05T06:52:00.994Z,100881.52
2018-06-05T06:54:29.378Z,100888.13
2018-06-05T06:56:57.723Z,100892.55
2018-06-05T06:59:26.090Z,100897.05
2018-06-05T07:02:04.987Z,100902.70
2018-06-05T07:04:33.297Z,100902.95
2018-06-05T07:07:01.667Z,100905.57
2018-06-05T07:09:30.030Z,100910.80
2018-06-05T07:11:58.382Z,100913.52
2018-06-05T07:14:26.743Z,100919.03
2018-06-05T07:16:55.165Z,100926.09
2018-06-05T07:19:23.536Z,100932.53
2018-06-05T07:21:51.907Z,100931.67
2018-06-05T07:24:20.279Z,100936.72
2018-06-05T07:26:48.648Z,100936.61
2018-06-05T07:29:17.014Z,100941.13
2018-06-05T07:31:45.384Z,100944.87
2018-06-05T07:34:13.740Z,100945.98
2018-06-05T07:36:42.108Z,100945.07
2018-06-05T07:39:10.473Z,100949.31
2018-06-05T07:41:38.846Z,100949.37
2018-06-05T07:44:07.216Z,100956.53
2018-06-05T07:46:35.588Z,100957.62
2018-06-05T07:49:04.063Z,100963.29
2018-06-05T07:51:32.437Z,100965.19
2018-06-05T07:54:00.806Z,100971.18
2018-06-05T07:56:29.164Z,100969.85
2018-06-05T07:58:57.527Z,100967.95
2018-06-05T08:01:25.884Z,100973.46
2018-06-05T08:03:54.294Z,100966.55
2018-06-05T08:06:22.667Z,100974.47
2018-06-05T08:08:51.040Z,100970.22
2018-06-05T08:11:19.453Z,100966.18
2018-06-05T08:13:47.845Z,100971.38
2018-06-05T08:16:16.206Z,100981.09
2018-06-05T08:18:44.568Z,100982.72
2018-06-05T08:21:12.932Z,100981.52
2018-06-05T08:23:41.298Z,100982.96
2018-06-05T08:26:09.666Z,100982.08
2018-06-05T08:28:38.027Z,100977.14
2018-06-05T08:31:06.388Z,100978.83
2018-06-05T08:33:34.746Z,100976.94
2018-06-05T08:36:03.107Z,100975.42
2018-06-05T08:38:31.480Z,100977.39
2018-06-05T08:40:59.849Z,100986.06
2018-06-05T08:43:28.217Z,100990.88
2018-06-05T08:45:56.593Z,100994.06
2018-06-05T08:48:24.958Z,101009.36
2018-06-05T08:50:53.313Z,101013.23
2018-06-05T08:53:21.698Z,101021.28
2018-06-05T08:55:50.067Z,101020.26
2018-06-05T08:58:18.422Z,101024.70
2018-06-05T09:00:46.786Z,101025.77
2018-06-05T09:03:15.179Z,101027.19
2018-06-05T09:05:43.539Z,101029.76
2018-06-05T09:08:11.910Z,101033.33
2018-06-05T09:10:40.275Z,101042.45
2018-06-05T09:13:08.841Z,101039.91
2018-06-05T09:15:37.175Z,101046.08
2018-06-05T09:18:05.534Z,101043.63
2018-06-05T09:20:33.897Z,101047.25
2018-06-05T09:23:02.270Z,101049.22
2018-06-05T09:25:30.635Z,101053.83
2018-06-05T09:27:59.000Z,101051.92
2018-06-05T09:30:27.371Z,101053.22
2018-06-05T09:32:55.888Z,101054.08
2018-06-05T09:35:24.240Z,101051.63
2018-06-05T09:37:52.811Z,101053.66
2018-06-05T09:40:21.209Z,101053.91
2018-06-05T09:42:49.576Z,101058.97
2018-06-05T09:45:17.931Z,101062.67
2018-06-05T09:47:46.294Z,101061.45
2018-06-05T09:50:14.657Z,101063.15
2018-06-05T09:52:43.017Z,101065.88
2018-06-05T09:55:11.375Z,101075.58
2018-06-05T09:57:39.806Z,101078.28
2018-06-05T10:00:08.106Z,101080.84
2018-06-05T10:02:36.493Z,101087.02
2018-06-05T10:05:05.012Z,101086.81
2018-06-05T10:07:33.344Z,101094.72
2018-06-05T10:10:01.679Z,101094.37
2018-06-05T10:12:30.002Z,101104.48
2018-06-05T10:14:58.339Z,101104.82
2018-06-05T10:17:26.653Z,101102.41
2018-06-05T10:19:54.494Z,101099.25
2018-06-05T10:22:23.086Z,101111.66
2018-06-05T10:24:51.105Z,101107.53
2018-06-05T10:27:20.017Z,101114.81
2018-06-05T10:29:48.323Z,101123.86
2018-06-05T10:32:16.641Z,101127.66
2018-06-05T10:34:45.301Z,101130.98
2018-06-05T10:37:13.376Z,101128.78
2018-06-05T10:39:41.676Z,101134.05
2018-06-05T10:42:09.414Z,101130.89
2018-06-05T10:44:38.348Z,101135.10
2018-06-05T10:47:06.658Z,101135.73
2018-06-05T10:49:35.015Z,101145.23
2018-06-05T10:52:03.298Z,101144.95
2018-06-05T10:54:31.690Z,101145.82
2018-06-05T10:57:00.002Z,101143.83
2018-06-05T10:59:28.334Z,101147.20
2018-06-05T11:01:56.649Z,101156.27
2018-06-05T11:04:24.975Z,101154.33
2018-06-05T11:06:53.303Z,101165.59
2018-06-05T11:09:21.296Z,101173.98
2018-06-05T11:11:49.950Z,101176.45
2018-06-05T11:14:18.295Z,101177.92
2018-06-05T11:16:46.674Z,101181.00
2018-06-05T11:19:14.989Z,101179.77
2018-06-05T11:21:43.311Z,101178.75
2018-06-05T11:24:11.633Z,101179.95
2018-06-05T11:26:39.377Z,101182.30
2018-06-05T11:29:08.278Z,101182.88
2018-06-05T11:31:36.598Z,101182.84
2018-06-05T11:34:04.918Z,101189.36
2018-06-05T11:36:32.713Z,101182.02
2018-06-05T11:39:01.612Z,101185.27
2018-06-05T11:41:29.350Z,101189.70
2018-06-05T11:43:58.263Z,101195.72
2018-06-05T11:46:26.014Z,101188.34
2018-06-05T11:48:55.227Z,101197.40
2018-06-05T11:51:23.543Z,101200.73
2018-06-05T11:53:52.427Z,101199.80
2018-06-05T11:56:21.726Z,101202.61
2018-06-05T11:58:51.326Z,101202.91
2018-06-05T12:01:19.085Z,101210.02
2018-06-05T12:03:48.264Z,101212.73
2018-06-05T12:06:22.970Z,101218.20
2018-06-05T12:09:08.826Z,101209.91
2018-06-05T12:11:41.208Z,101214.83
2018-06-05T12:14:09.483Z,101222.17
2018-06-05T12:16:37.214Z,101221.33
2018-06-05T12:19:16.618Z,101226.78
2018-06-05T12:21:49.079Z,101230.67
2018-06-05T12:30:27.690Z,101239.94
2018-06-05T12:32:57.188Z,101238.12
2018-06-05T12:35:25.502Z,101250.95
2018-06-05T12:38:05.658Z,101252.17
2018-06-05T12:40:34.010Z,101249.53
2018-06-05T12:43:02.334Z,101243.41
2018-06-05T12:45:33.934Z,101256.51
2018-06-05T12:48:02.261Z,101252.84
2018-06-05T12:50:30.584Z,101260.29
2018-06-05T12:52:59.138Z,101256.89
2018-06-05T12:55:27.232Z,101261.60
2018-06-05T13:00:28.863Z,101261.63
2018-06-05T13:02:57.201Z,101266.30
2018-06-05T13:05:26.992Z,101271.45
2018-06-05T13:07:55.550Z,101268.45
2018-06-05T13:10:23.289Z,101276.16
2018-06-05T13:12:53.275Z,101281.30
2018-06-05T13:15:21.654Z,101282.18
2018-06-05T13:17:49.998Z,101293.16
2018-06-05T13:20:18.328Z,101295.92
2018-06-05T13:22:46.743Z,101299.58
2018-06-05T13:25:14.991Z,101305.27
2018-06-05T13:27:43.313Z,101310.14
2018-06-05T13:30:11.066Z,101312.55
2018-06-05T13:32:39.961Z,101317.06
2018-06-05T13:35:07.787Z,101309.23
2018-06-05T13:40:04.979Z,101318.19
2018-06-05T13:42:33.315Z,101324.52
2018-06-05T13:45:02.045Z,101322.36
2018-06-05T13:47:30.361Z,101323.48
2018-06-05T13:49:58.691Z,101324.74
2018-06-05T13:52:27.038Z,101323.73
2018-06-05T13:54:55.342Z,101322.61
2018-06-05T13:57:23.656Z,101325.28
2018-06-05T13:59:51.986Z,101330.80
2018-06-05T14:02:19.789Z,101331.21
2018-06-05T14:04:48.720Z,101333.07
2018-06-05T14:07:17.009Z,101338.41
2018-06-05T14:09:45.542Z,101344.12
2018-06-05T14:12:24.959Z,101349.98
2018-06-05T14:15:04.753Z,101345.55
2018-06-05T14:17:44.192Z,101351.83
2018-06-05T14:23:26.337Z,101357.92
2018-06-05T14:26:03.676Z,101351.64
2018-06-05T14:28:44.465Z,101352.13
2018-06-05T14:31:12.819Z,101358.99
2018-06-05T14:34:01.770Z,101358.44
2018-06-05T15:12:30.372Z,101387.44
2018-06-05T15:14:58.888Z,101389.44
2018-06-05T15:17:27.290Z,101395.52
2018-06-05T15:19:55.625Z,101396.64
2018-06-05T15:22:24.032Z,101398.83
2018-06-05T15:24:52.064Z,101397.77
2018-06-05T15:27:21.209Z,101394.62
2018-06-05T15:29:50.011Z,101397.89
2018-06-05T15:32:18.181Z,101390.53
2018-06-05T15:34:46.590Z,101394.13
2018-06-05T15:37:15.777Z,101399.55
2018-06-05T15:39:43.563Z,101388.45
2018-06-05T15:42:12.255Z,101397.31
2018-06-05T15:44:40.788Z,101393.59
2018-06-05T15:47:09.424Z,101396.42
2018-06-05T15:49:44.991Z,101403.41
2018-06-05T15:52:14.877Z,101406.00
2018-06-05T15:54:42.982Z,101407.73
2018-06-05T15:57:11.532Z,101409.42
2018-06-05T15:59:40.897Z,101417.69
2018-06-05T16:02:08.819Z,101425.31
2018-06-05T16:04:37.469Z,101426.24
2018-06-05T16:07:05.695Z,101428.15
2018-06-05T16:09:35.423Z,101422.41
2018-06-05T16:12:05.775Z,101418.92
2018-06-05T16:14:34.126Z,101426.89
2018-06-05T16:17:04.444Z,101427.33
2018-06-05T16:19:37.525Z,101428.08
2018-06-05T16:22:00.373Z,101433.53
2018-06-05T16:24:29.115Z,101434.92
2018-06-05T16:26:57.835Z,101430.88
2018-06-05T16:29:26.604Z,101429.01
2018-06-05T16:31:55.734Z,101431.63
2018-06-05T16:34:24.224Z,101432.00
2018-06-05T16:36:52.557Z,101438.30
2018-06-05T16:39:20.903Z,101440.83
2018-06-05T16:41:49.236Z,101435.11
2018-06-05T16:44:17.609Z,101431.55
2018-06-05T16:46:45.981Z,101437.30
2018-06-05T16:49:17.715Z,101439.59
2018-06-05T16:51:43.122Z,101443.77
2018-06-05T16:54:11.471Z,101455.64
2018-06-05T16:56:39.630Z,101449.96
2018-06-05T16:59:09.867Z,101460.58
2018-06-05T17:01:36.984Z,101464.06
2018-06-05T17:04:04.871Z,101472.15
2018-06-05T17:06:34.118Z,101474.41
2018-06-05T17:09:02.267Z,101474.95
2018-06-05T17:11:31.521Z,101476.00
2018-06-05T17:13:59.539Z,101476.83
2018-06-05T17:16:28.442Z,101484.87
2018-06-05T17:18:59.571Z,101491.46
2018-06-05T17:21:44.330Z,101491.88
2018-06-05T17:23:56.953Z,101490.91
2018-06-05T17:26:25.559Z,101495.98
2018-06-05T17:28:53.741Z,101493.22
2018-06-05T17:31:22.177Z,101495.94
2018-06-05T17:33:50.543Z,101495.03
2018-06-05T17:36:19.837Z,101503.86
2018-06-05T17:38:47.300Z,101504.28
2018-06-05T17:41:16.778Z,101508.78
2018-06-05T17:43:44.225Z,101510.48
2018-06-05T17:46:13.014Z,101512.80
2018-06-05T17:48:41.388Z,101511.55
2018-06-05T17:51:10.101Z,101517.50
2018-06-05T17:53:37.907Z,101515.00
2018-06-05T17:56:06.911Z,101513.81
2018-06-05T17:58:36.745Z,101511.33
2018-06-05T18:01:04.174Z,101506.62
2018-06-05T18:03:32.607Z,101501.66
2018-06-05T18:06:01.905Z,101501.45
2018-06-05T18:08:30.558Z,101500.83
2018-06-05T18:10:58.877Z,101501.50
2018-06-05T18:13:27.229Z,101504.50
2018-06-05T18:15:59.130Z,101510.10
2018-06-05T18:18:28.304Z,101514.94
2018-06-05T18:20:56.512Z,101521.49
2018-06-05T18:23:25.740Z,101521.70
2018-06-05T18:25:53.469Z,101524.17
2018-06-05T18:28:21.800Z,101525.97
2018-06-05T18:30:49.550Z,101530.36
2018-06-05T18:33:18.474Z,101536.48
2018-06-05T18:35:46.798Z,101538.94
2018-06-05T18:38:15.449Z,101539.80
2018-06-05T18:40:43.784Z,101547.19
2018-06-05T18:43:12.634Z,101549.53
2018-06-05T18:45:41.046Z,101558.97
2018-06-05T18:48:09.499Z,101559.05
2018-06-05T18:50:37.851Z,101564.42
2018-06-05T18:53:06.197Z,101569.02
2018-06-05T18:55:34.601Z,101571.50
2018-06-05T18:58:03.156Z,101573.39
2018-06-05T19:00:31.715Z,101581.26
2018-06-05T19:03:00.354Z,101580.78
2018-06-05T19:05:28.682Z,101588.86
2018-06-05T19:07:57.053Z,101600.70
2018-06-05T19:10:25.373Z,101602.22
2018-06-05T19:12:55.076Z,101617.13
2018-06-05T19:15:22.296Z,101622.22
2018-06-05T19:17:50.441Z,101622.74
2018-06-05T19:20:18.803Z,101626.22
2018-06-05T19:22:47.356Z,101633.77
2018-06-05T19:25:15.453Z,101633.37
2018-06-05T19:27:43.201Z,101636.03
2018-06-05T19:30:12.172Z,101635.60
2018-06-05T19:32:40.595Z,101639.03
2018-06-05T19:35:08.350Z,101636.93
2018-06-05T19:37:37.255Z,101642.05
2018-06-05T19:40:05.609Z,101641.32
2018-06-05T19:42:33.932Z,101647.75
2018-06-05T19:45:03.102Z,101650.63
2018-06-05T19:47:32.637Z,101653.84
2018-06-05T19:50:01.593Z,101656.43
2018-06-05T19:52:33.043Z,101659.64
2018-06-05T19:55:02.606Z,101664.80
2018-06-05T19:57:30.891Z,101665.51
2018-06-05T19:59:59.206Z,101667.49
2018-06-05T20:02:27.534Z,101668.90
2018-06-05T20:04:55.865Z,101670.08
2018-06-05T20:07:24.187Z,101676.66
2018-06-05T20:09:52.521Z,101679.32
2018-06-05T20:12:20.882Z,101681.41
2018-06-05T20:14:49.153Z,101685.56
2018-06-05T20:17:17.479Z,101695.64
2018-06-05T20:19:45.816Z,101697.23
2018-06-05T20:22:14.147Z,101698.58
2018-06-05T20:24:42.500Z,101702.62
2018-06-05T20:27:10.806Z,101705.44
2018-06-05T20:29:38.581Z,101707.40
2018-06-05T20:32:07.496Z,101715.41
2018-06-05T20:34:35.808Z,101718.16
2018-06-05T20:37:04.136Z,101723.07
2018-06-05T20:39:32.453Z,101729.51
2018-06-05T20:42:00.201Z,101732.77
2018-06-05T20:44:28.848Z,101740.72
2018-06-05T20:46:57.495Z,101742.53
2018-06-05T20:49:25.815Z,101743.26
2018-06-05T20:51:54.144Z,101747.43
2018-06-05T20:54:22.499Z,101748.61
2018-06-05T20:56:50.777Z,101751.11
2018-06-05T20:59:19.217Z,101749.93
2018-06-05T21:01:47.625Z,101755.09
2018-06-05T21:04:16.048Z,101756.61
2018-06-05T21:06:44.373Z,101760.69
2018-06-05T21:09:12.113Z,101766.59
2018-06-05T21:11:41.032Z,101771.59
2018-06-05T21:14:09.329Z,101772.50
2018-06-05T21:16:37.652Z,101775.48
2018-06-05T21:19:05.970Z,101785.16
2018-06-05T21:21:44.882Z,101786.86
2018-06-05T21:24:12.773Z,101785.90
2018-06-05T21:29:24.276Z,101789.73
2018-06-05T21:31:52.718Z,101789.75
2018-06-05T21:34:21.038Z,101793.41
2018-06-05T21:36:49.348Z,101791.96
2018-06-05T21:39:17.084Z,101791.35
2018-06-05T21:41:45.993Z,101796.90
2018-06-05T21:44:14.359Z,101802.28
2018-06-05T21:46:42.861Z,101807.95
2018-06-05T21:49:11.178Z,101806.86
2018-06-05T21:51:39.505Z,101806.53
2018-06-05T21:54:07.244Z,101806.91
2018-06-05T21:56:36.139Z,101817.12
2018-06-05T21:59:04.458Z,101817.15
2018-06-05T22:01:32.821Z,101820.48
2018-06-05T22:04:01.218Z,101823.38
2018-06-05T22:06:29.509Z,101824.64
2018-06-05T22:08:57.847Z,101825.66
2018-06-05T22:11:26.165Z,101824.38
2018-06-05T22:13:54.485Z,101821.74
2018-06-05T22:16:22.813Z,101825.86
2018-06-05T22:18:51.186Z,101826.16
2018-06-05T22:21:19.129Z,101829.19
2018-06-05T22:23:48.096Z,101834.84
2018-06-05T22:26:16.404Z,101838.16
2018-06-05T22:28:44.931Z,101839.72
2018-06-05T22:31:13.829Z,101838.23
2018-06-05T22:33:42.151Z,101843.45
2018-06-05T22:36:11.968Z,101847.23
2018-06-05T22:38:43.964Z,101847.80
2018-06-05T22:41:10.373Z,101848.17
2018-06-05T22:43:39.456Z,101843.55
2018-06-05T22:46:07.778Z,101841.52
2018-06-05T22:48:35.521Z,101844.16
2018-06-05T22:51:04.459Z,101841.91
2018-06-05T22:53:32.300Z,101840.97
2018-06-05T22:56:01.228Z,101841.68
2018-06-05T22:58:30.518Z,101843.97
2018-06-05T23:01:01.825Z,101839.97
2018-06-05T23:03:29.695Z,101839.48
2018-06-05T23:05:57.817Z,101847.22
2018-06-05T23:08:26.906Z,101855.08
2018-06-05T23:10:55.225Z,101854.50
2018-06-05T23:13:23.553Z,101855.28
2018-06-05T23:15:51.864Z,101857.42
2018-06-05T23:18:20.252Z,101857.28
2018-06-05T23:20:48.557Z,101856.44
2018-06-05T23:23:16.886Z,101856.14
2018-06-05T23:25:45.207Z,101856.42
2018-06-05T23:28:13.533Z,101854.81
2018-06-05T23:30:41.844Z,101856.45
2018-06-05T23:33:10.689Z,101856.73
2018-06-05T23:35:39.624Z,101859.01
2018-06-05T23:38:07.975Z,101868.26
2018-06-05T23:40:36.315Z,101861.64
2018-06-05T23:43:04.646Z,101863.34
2018-06-05T23:45:32.985Z,101864.89
2018-06-05T23:48:01.328Z,101860.80
2018-06-05T23:50:29.659Z,101859.59
2018-06-05T23:52:58.111Z,101867.66
2018-06-05T23:55:26.440Z,101869.04
2018-06-05T23:57:54.771Z,101868.87
